createdAt,value
2022-12-18T00:00:06.789Z,24.40
2022-12-18T00:01:18.019Z,22.60
2022-12-18T00:02:19.747Z,24.53
2022-12-18T00:03:21.549Z,22.93
2022-12-18T00:04:25.426Z,24.67
2022-12-18T00:05:27.131Z,25.13
2022-12-18T00:06:30.234Z,25.50
2022-12-18T00:07:32.267Z,24.53
2022-12-18T00:08:34.684Z,23.40
2022-12-18T00:09:40.034Z,24.23
2022-12-18T00:10:42.200Z,24.30
2022-12-18T00:11:44.124Z,23.60
2022-12-18T00:12:45.827Z,22.33
2022-12-18T00:13:48.722Z,22.47
2022-12-18T00:14:50.451Z,23.90
2022-12-18T00:15:52.148Z,23.93
2022-12-18T00:17:01.578Z,24.37
2022-12-18T00:18:03.394Z,23.67
2022-12-18T00:19:08.262Z,25.13
2022-12-18T00:20:10.370Z,24.07
2022-12-18T00:21:13.546Z,21.80
2022-12-18T00:22:15.285Z,23.67
2022-12-18T00:23:17.272Z,23.07
2022-12-18T00:24:19.844Z,22.07
2022-12-18T00:25:22.548Z,23.50
2022-12-18T00:26:26.768Z,23.40
2022-12-18T00:27:28.491Z,22.27
2022-12-18T00:28:30.301Z,23.83
2022-12-18T00:29:32.032Z,23.83
2022-12-18T00:30:33.811Z,23.57
2022-12-18T00:31:35.847Z,23.37
2022-12-18T00:32:38.047Z,23.80
2022-12-18T00:33:40.398Z,22.20
2022-12-18T00:34:42.410Z,23.57
2022-12-18T00:35:44.173Z,22.67
2022-12-18T00:36:49.129Z,22.53
2022-12-18T00:37:50.779Z,23.33
2022-12-18T00:38:54.552Z,22.67
2022-12-18T00:39:56.280Z,22.33
2022-12-18T00:40:58.231Z,23.43
2022-12-18T00:42:18.246Z,22.40
2022-12-18T00:43:19.938Z,21.87
2022-12-18T00:44:21.689Z,22.03
2022-12-18T00:45:26.254Z,22.73
2022-12-18T00:46:28.235Z,22.10
2022-12-18T00:47:30.107Z,22.13
2022-12-18T00:48:31.811Z,23.43
2022-12-18T00:49:34.895Z,22.60
2022-12-18T00:50:38.444Z,22.40
2022-12-18T00:51:41.133Z,22.03
2022-12-18T00:52:43.963Z,22.50
2022-12-18T00:53:48.599Z,22.47
2022-12-18T00:54:50.444Z,23.23
2022-12-18T00:55:52.123Z,22.17
2022-12-18T00:56:53.968Z,22.00
2022-12-18T00:57:55.627Z,21.93
2022-12-18T00:58:57.362Z,22.00
2022-12-18T00:59:59.053Z,21.30
2022-12-18T01:01:00.855Z,21.03
2022-12-18T01:02:02.708Z,23.57
2022-12-18T01:03:05.097Z,21.67
2022-12-18T01:04:06.936Z,22.67
2022-12-18T01:05:10.172Z,21.67
2022-12-18T01:06:14.099Z,22.43
2022-12-18T01:07:15.920Z,23.37
2022-12-18T01:08:17.573Z,21.73
2022-12-18T01:09:19.312Z,23.20
2022-12-18T01:10:21.133Z,23.13
2022-12-18T01:11:23.235Z,23.20
2022-12-18T01:12:25.080Z,21.93
2022-12-18T01:13:26.787Z,22.37
2022-12-18T01:14:28.484Z,22.07
2022-12-18T01:15:30.219Z,22.93
2022-12-18T01:16:32.198Z,21.90
2022-12-18T01:17:34.760Z,24.50
2022-12-18T01:18:36.807Z,21.90
2022-12-18T01:19:38.607Z,24.00
2022-12-18T01:20:40.282Z,23.63
2022-12-18T01:21:41.953Z,25.10
2022-12-18T01:22:43.719Z,23.13
2022-12-18T01:23:45.453Z,24.07
2022-12-18T01:24:47.215Z,22.87
2022-12-18T01:25:49.420Z,22.47
2022-12-18T01:26:51.207Z,23.07
2022-12-18T01:27:52.884Z,23.50
2022-12-18T01:28:57.247Z,23.77
2022-12-18T01:29:58.959Z,22.73
2022-12-18T01:31:14.894Z,25.23
2022-12-18T01:32:16.615Z,22.57
2022-12-18T01:33:18.336Z,23.00
2022-12-18T01:34:20.002Z,23.33
2022-12-18T01:35:21.708Z,23.67
2022-12-18T01:36:26.002Z,23.17
2022-12-18T01:37:27.706Z,22.97
2022-12-18T01:38:30.417Z,22.53
2022-12-18T01:39:35.841Z,22.30
2022-12-18T01:40:37.660Z,22.27
2022-12-18T01:41:58.639Z,22.87
2022-12-18T01:43:00.377Z,21.57
2022-12-18T01:44:02.062Z,22.87
2022-12-18T01:45:17.405Z,21.90
2022-12-18T01:46:22.000Z,21.90
2022-12-18T01:47:39.897Z,21.63
2022-12-18T01:48:42.577Z,21.40
2022-12-18T01:49:44.252Z,23.47
2022-12-18T01:50:46.129Z,23.10
2022-12-18T01:51:47.827Z,22.40
2022-12-18T01:53:04.562Z,23.50
2022-12-18T01:54:06.583Z,21.67
2022-12-18T01:55:10.031Z,21.33
2022-12-18T01:56:15.481Z,23.27
2022-12-18T01:57:17.615Z,23.43
2022-12-18T01:58:22.974Z,24.03
2022-12-18T01:59:24.907Z,22.90
2022-12-18T02:00:27.698Z,23.37
2022-12-18T02:01:31.396Z,23.10
2022-12-18T02:02:33.592Z,21.47
2022-12-18T02:03:35.823Z,23.30
2022-12-18T02:04:37.819Z,20.93
2022-12-18T02:05:52.105Z,21.73
2022-12-18T02:07:16.012Z,21.87
2022-12-18T02:08:21.841Z,20.10
2022-12-18T02:09:40.665Z,22.07
2022-12-18T02:11:08.161Z,22.03
2022-12-18T02:12:35.987Z,20.23
2022-12-18T02:14:01.406Z,21.70
2022-12-18T02:15:30.833Z,22.27
2022-12-18T02:17:04.639Z,21.23
2022-12-18T02:18:10.029Z,21.03
2022-12-18T02:19:30.141Z,22.27
2022-12-18T02:20:41.504Z,22.83
2022-12-18T02:22:12.080Z,21.70
2022-12-18T02:23:24.215Z,20.87
2022-12-18T02:24:40.304Z,21.37
2022-12-18T02:26:06.956Z,21.73
2022-12-18T02:27:11.775Z,21.60
2022-12-18T02:28:17.345Z,20.63
2022-12-18T02:29:30.587Z,22.03
2022-12-18T02:30:34.941Z,22.27
2022-12-18T02:32:08.443Z,21.90
2022-12-18T02:33:13.272Z,21.43
2022-12-18T02:34:17.269Z,21.20
2022-12-18T02:35:25.621Z,22.17
2022-12-18T02:36:29.229Z,20.77
2022-12-18T02:37:33.316Z,20.97
2022-12-18T02:38:37.217Z,20.57
2022-12-18T02:39:43.192Z,22.33
2022-12-18T02:40:46.003Z,22.57
2022-12-18T02:41:48.292Z,22.27
2022-12-18T02:42:50.167Z,21.50
2022-12-18T02:43:59.795Z,22.33
2022-12-18T02:45:01.452Z,23.03
2022-12-18T02:46:31.775Z,23.60
2022-12-18T02:47:37.841Z,23.03
2022-12-18T02:48:39.699Z,24.60
2022-12-18T02:49:44.118Z,22.47
2022-12-18T02:50:56.859Z,21.63
2022-12-18T02:52:22.083Z,20.67
2022-12-18T02:53:52.208Z,20.97
2022-12-18T02:55:28.097Z,21.27
2022-12-18T02:56:45.781Z,19.47
2022-12-18T02:58:15.149Z,20.67
2022-12-18T02:59:28.422Z,19.80
2022-12-18T03:00:49.387Z,21.00
2022-12-18T03:02:24.991Z,21.63
2022-12-18T03:03:31.051Z,19.23
2022-12-18T03:04:50.473Z,21.63
2022-12-18T03:05:57.605Z,20.70
2022-12-18T03:07:03.925Z,20.53
2022-12-18T03:08:28.314Z,20.77
2022-12-18T03:09:35.379Z,19.50
2022-12-18T03:10:43.575Z,21.67
2022-12-18T03:12:07.355Z,21.43
2022-12-18T03:13:19.818Z,20.57
2022-12-18T03:14:24.426Z,20.50
2022-12-18T03:15:45.075Z,23.17
2022-12-18T03:16:50.323Z,21.83
2022-12-18T03:18:03.051Z,21.67
2022-12-18T03:19:27.650Z,20.70
2022-12-18T03:20:32.677Z,22.40
2022-12-18T03:21:41.360Z,20.73
2022-12-18T03:22:45.734Z,20.83
2022-12-18T03:23:51.819Z,20.80
2022-12-18T03:24:56.919Z,21.83
2022-12-18T03:26:07.302Z,20.80
2022-12-18T03:27:16.660Z,20.67
2022-12-18T03:28:22.711Z,21.10
2022-12-18T03:29:32.899Z,20.50
2022-12-18T03:30:36.788Z,22.17
2022-12-18T03:31:41.787Z,21.80
2022-12-18T03:33:00.356Z,21.47
2022-12-18T03:34:10.721Z,21.37
2022-12-18T03:35:18.326Z,21.03
2022-12-18T03:36:20.127Z,21.17
2022-12-18T03:37:22.023Z,20.90
2022-12-18T03:38:24.143Z,21.63
2022-12-18T03:39:26.517Z,22.07
2022-12-18T03:40:35.621Z,21.03
2022-12-18T03:42:14.648Z,21.07
2022-12-18T03:43:38.311Z,21.27
2022-12-18T03:44:47.086Z,20.33
2022-12-18T03:46:02.401Z,19.47
2022-12-18T03:47:28.592Z,20.57
2022-12-18T03:48:44.758Z,18.63
2022-12-18T03:49:52.642Z,19.67
2022-12-18T03:50:58.476Z,20.77
2022-12-18T03:52:22.107Z,20.40
2022-12-18T03:53:34.475Z,20.03
2022-12-18T03:54:37.649Z,20.10
2022-12-18T03:55:40.867Z,20.20
2022-12-18T03:56:48.026Z,20.10
2022-12-18T03:57:50.992Z,20.60
2022-12-18T03:58:54.810Z,21.43
2022-12-18T04:00:01.312Z,20.43
2022-12-18T04:01:10.205Z,19.90
2022-12-18T04:02:12.664Z,21.53
2022-12-18T04:03:16.045Z,20.90
2022-12-18T04:04:19.767Z,21.27
2022-12-18T04:05:23.462Z,20.53
2022-12-18T04:06:25.340Z,22.00
2022-12-18T04:07:27.768Z,20.20
2022-12-18T04:08:30.703Z,21.83
2022-12-18T04:09:34.761Z,22.27
2022-12-18T04:10:37.310Z,20.77
2022-12-18T04:11:39.024Z,21.50
2022-12-18T04:12:40.866Z,22.03
2022-12-18T04:13:45.291Z,20.67
2022-12-18T04:14:47.032Z,20.30
2022-12-18T04:15:49.116Z,21.40
2022-12-18T04:16:50.997Z,20.23
2022-12-18T04:17:52.793Z,20.40
2022-12-18T04:18:55.170Z,20.07
2022-12-18T04:19:56.958Z,19.60
2022-12-18T04:20:58.854Z,20.27
2022-12-18T04:22:00.757Z,21.33
2022-12-18T04:23:02.501Z,21.23
2022-12-18T04:24:04.399Z,21.50
2022-12-18T04:25:06.436Z,20.63
2022-12-18T04:26:08.268Z,21.13
2022-12-18T04:27:10.208Z,20.67
2022-12-18T04:28:12.018Z,20.40
2022-12-18T04:29:13.783Z,20.40
2022-12-18T04:30:15.611Z,21.00
2022-12-18T04:31:17.375Z,21.27
2022-12-18T04:32:19.291Z,20.83
2022-12-18T04:33:21.171Z,20.30
2022-12-18T04:34:23.040Z,21.57
2022-12-18T04:35:24.725Z,21.10
2022-12-18T04:36:26.488Z,21.70
2022-12-18T04:37:28.184Z,21.77
2022-12-18T04:38:30.005Z,20.03
2022-12-18T04:39:31.785Z,21.47
2022-12-18T04:40:33.684Z,21.70
2022-12-18T04:41:35.441Z,19.77
2022-12-18T04:42:37.120Z,20.57
2022-12-18T04:43:39.056Z,21.60
2022-12-18T04:44:41.154Z,21.17
2022-12-18T04:45:43.013Z,20.43
2022-12-18T04:46:44.920Z,20.87
2022-12-18T04:47:46.644Z,21.10
2022-12-18T04:48:48.395Z,22.30
2022-12-18T04:49:50.033Z,21.10
2022-12-18T04:50:51.743Z,22.10
2022-12-18T04:51:53.957Z,22.87
2022-12-18T04:52:56.169Z,21.33
2022-12-18T04:53:58.034Z,21.20
2022-12-18T04:54:59.741Z,20.90
2022-12-18T04:56:10.396Z,21.43
2022-12-18T04:57:12.095Z,20.63
2022-12-18T04:58:13.808Z,20.60
2022-12-18T04:59:15.532Z,19.63
2022-12-18T05:00:17.649Z,19.70
2022-12-18T05:01:20.278Z,20.47
2022-12-18T05:02:22.177Z,20.93
2022-12-18T05:03:24.368Z,22.00
2022-12-18T05:04:26.182Z,20.07
2022-12-18T05:05:27.965Z,21.50
2022-12-18T05:06:29.860Z,21.67
2022-12-18T05:07:31.525Z,20.53
2022-12-18T05:08:33.756Z,20.00
2022-12-18T05:09:35.650Z,21.13
2022-12-18T05:10:38.505Z,20.17
2022-12-18T05:11:40.277Z,19.07
2022-12-18T05:12:59.014Z,18.77
2022-12-18T05:14:03.070Z,19.17
2022-12-18T05:15:05.214Z,19.10
2022-12-18T05:16:07.484Z,19.00
2022-12-18T05:17:09.472Z,19.10
2022-12-18T05:18:11.272Z,19.60
2022-12-18T05:19:12.955Z,20.33
2022-12-18T05:20:15.066Z,19.37
2022-12-18T05:21:16.726Z,19.80
2022-12-18T05:22:18.506Z,19.67
2022-12-18T05:23:21.944Z,19.80
2022-12-18T05:24:23.607Z,20.37
2022-12-18T05:25:25.546Z,20.00
2022-12-18T05:26:27.284Z,19.20
2022-12-18T05:27:29.084Z,19.60
2022-12-18T05:28:32.794Z,20.40
2022-12-18T05:29:34.502Z,19.60
2022-12-18T05:30:36.233Z,19.53
2022-12-18T05:31:39.877Z,20.17
2022-12-18T05:32:42.013Z,19.77
2022-12-18T05:33:44.056Z,19.00
2022-12-18T05:34:45.949Z,19.10
2022-12-18T05:35:58.879Z,17.63
2022-12-18T05:37:00.564Z,18.93
2022-12-18T05:38:02.311Z,18.47
2022-12-18T05:39:04.429Z,17.73
2022-12-18T05:40:06.919Z,18.83
2022-12-18T05:41:09.460Z,18.83
2022-12-18T05:42:11.117Z,18.17
2022-12-18T05:43:16.592Z,18.70
2022-12-18T05:44:22.549Z,20.13
2022-12-18T05:45:24.296Z,18.60
2022-12-18T05:46:26.095Z,18.07
2022-12-18T05:47:29.561Z,19.20
2022-12-18T05:48:31.247Z,17.67
2022-12-18T05:49:32.968Z,18.80
2022-12-18T05:50:39.299Z,19.30
2022-12-18T05:51:40.988Z,18.90
2022-12-18T05:52:43.086Z,18.80
2022-12-18T05:53:45.132Z,18.50
2022-12-18T05:54:46.872Z,19.90
2022-12-18T05:55:49.025Z,19.30
2022-12-18T05:56:50.774Z,18.67
2022-12-18T05:57:52.564Z,19.50
2022-12-18T05:58:55.145Z,19.80
2022-12-18T05:59:56.870Z,18.77
2022-12-18T06:00:58.991Z,18.90
2022-12-18T06:02:00.859Z,19.30
2022-12-18T06:03:03.117Z,19.50
2022-12-18T06:04:05.142Z,18.37
2022-12-18T06:05:07.590Z,18.63
2022-12-18T06:06:21.410Z,18.90
2022-12-18T06:07:23.116Z,18.60
2022-12-18T06:08:24.845Z,19.43
2022-12-18T06:09:26.578Z,19.73
2022-12-18T06:10:28.343Z,19.10
2022-12-18T06:11:30.009Z,18.17
2022-12-18T06:12:31.909Z,18.73
2022-12-18T06:13:33.715Z,19.30
2022-12-18T06:14:35.398Z,18.23
2022-12-18T06:15:38.392Z,18.60
2022-12-18T06:16:40.215Z,19.87
2022-12-18T06:17:41.887Z,18.07
2022-12-18T06:18:43.537Z,17.57
2022-12-18T06:19:45.219Z,18.10
2022-12-18T06:20:54.757Z,18.00
2022-12-18T06:21:58.813Z,18.43
2022-12-18T06:23:00.772Z,19.13
2022-12-18T06:24:02.449Z,19.13
2022-12-18T06:25:04.801Z,19.83
2022-12-18T06:26:09.011Z,19.37
2022-12-18T06:27:11.022Z,19.40
2022-12-18T06:28:12.789Z,19.63
2022-12-18T06:29:14.509Z,19.70
2022-12-18T06:30:16.743Z,18.83
2022-12-18T06:31:18.491Z,18.70
2022-12-18T06:32:20.173Z,18.70
2022-12-18T06:33:22.025Z,18.73
2022-12-18T06:34:23.790Z,18.13
2022-12-18T06:35:25.518Z,17.93
2022-12-18T06:36:27.172Z,17.23
2022-12-18T06:37:29.345Z,16.60
2022-12-18T06:38:31.963Z,17.40
2022-12-18T06:39:33.780Z,17.77
2022-12-18T06:40:37.490Z,18.73
2022-12-18T06:41:39.210Z,17.70
2022-12-18T06:42:41.832Z,18.43
2022-12-18T06:43:44.724Z,17.87
2022-12-18T06:44:46.532Z,18.17
2022-12-18T06:45:53.554Z,17.53
2022-12-18T06:46:56.554Z,17.70
2022-12-18T06:47:58.293Z,17.83
2022-12-18T06:49:00.837Z,17.63
2022-12-18T06:50:02.499Z,18.87
2022-12-18T06:51:04.677Z,19.43
2022-12-18T06:52:06.568Z,18.17
2022-12-18T06:53:08.243Z,19.77
2022-12-18T06:54:10.077Z,18.13
2022-12-18T06:55:12.782Z,21.77
2022-12-18T06:56:14.959Z,19.73
2022-12-18T06:57:16.663Z,19.70
2022-12-18T06:58:18.772Z,19.17
2022-12-18T06:59:20.516Z,17.73
2022-12-18T07:00:22.231Z,18.50
2022-12-18T07:01:24.290Z,18.17
2022-12-18T07:02:26.163Z,17.33
2022-12-18T07:03:28.002Z,19.40
2022-12-18T07:04:30.864Z,21.53
2022-12-18T07:05:32.564Z,19.80
2022-12-18T07:06:34.222Z,18.40
2022-12-18T07:07:36.630Z,18.80
2022-12-18T07:08:38.267Z,18.43
2022-12-18T07:09:39.984Z,18.70
2022-12-18T07:10:47.621Z,18.73
2022-12-18T07:11:51.406Z,17.97
2022-12-18T07:12:53.164Z,21.60
2022-12-18T07:13:55.383Z,21.57
2022-12-18T07:14:57.075Z,20.53
2022-12-18T07:16:17.190Z,21.13
2022-12-18T07:17:22.742Z,19.27
2022-12-18T07:18:24.451Z,17.90
2022-12-18T07:19:26.251Z,18.47
2022-12-18T07:20:27.990Z,18.43
2022-12-18T07:21:29.649Z,17.93
2022-12-18T07:22:31.353Z,17.70
2022-12-18T07:23:35.251Z,18.40
2022-12-18T07:24:37.535Z,18.80
2022-12-18T07:25:39.406Z,16.77
2022-12-18T07:26:41.143Z,18.03
2022-12-18T07:27:42.860Z,17.53
2022-12-18T07:28:44.898Z,18.00
2022-12-18T07:29:46.563Z,16.93
2022-12-18T07:30:48.265Z,17.17
2022-12-18T07:31:50.230Z,17.23
2022-12-18T07:32:52.127Z,17.03
2022-12-18T07:33:54.032Z,17.53
2022-12-18T07:34:55.722Z,18.13
2022-12-18T07:35:57.427Z,17.93
2022-12-18T07:36:59.171Z,18.40
2022-12-18T07:38:01.806Z,18.97
2022-12-18T07:39:03.545Z,23.53
2022-12-18T07:40:05.770Z,20.57
2022-12-18T07:41:12.948Z,24.27
2022-12-18T07:42:33.091Z,23.70
2022-12-18T07:43:35.927Z,20.73
2022-12-18T07:44:38.258Z,19.97
2022-12-18T07:45:40.117Z,18.87
2022-12-18T07:46:41.809Z,19.57
2022-12-18T07:47:43.570Z,17.93
2022-12-18T07:48:49.792Z,16.23
2022-12-18T07:49:52.194Z,16.73
2022-12-18T07:50:53.969Z,17.07
2022-12-18T07:51:58.915Z,18.20
2022-12-18T07:53:04.456Z,17.13
2022-12-18T07:54:06.226Z,17.23
2022-12-18T07:55:08.405Z,17.50
2022-12-18T07:56:30.045Z,17.13
2022-12-18T07:58:54.835Z,16.73
2022-12-18T07:59:56.611Z,17.37
2022-12-18T08:01:09.391Z,18.13
2022-12-18T08:02:11.375Z,17.50
2022-12-18T08:03:14.222Z,16.50
2022-12-18T08:04:15.985Z,17.70
2022-12-18T08:05:17.981Z,17.73
2022-12-18T08:06:22.579Z,18.80
2022-12-18T08:07:26.149Z,19.50
2022-12-18T08:08:28.337Z,18.73
2022-12-18T08:09:30.101Z,18.67
2022-12-18T08:10:31.919Z,17.80
2022-12-18T08:11:33.601Z,19.53
2022-12-18T08:12:35.355Z,18.80
2022-12-18T08:13:37.274Z,18.13
2022-12-18T08:14:39.141Z,17.40
2022-12-18T08:15:40.806Z,18.60
2022-12-18T08:16:42.582Z,18.20
2022-12-18T08:17:44.359Z,18.00
2022-12-18T08:18:46.260Z,17.30
2022-12-18T08:19:48.006Z,17.40
2022-12-18T08:20:49.706Z,17.43
2022-12-18T08:21:51.415Z,18.53
2022-12-18T08:22:53.121Z,18.57
2022-12-18T08:23:57.585Z,18.50
2022-12-18T08:24:59.338Z,18.07
2022-12-18T08:26:01.039Z,17.53
2022-12-18T08:28:24.501Z,18.33
2022-12-18T08:29:26.175Z,17.10
2022-12-18T08:30:27.964Z,18.70
2022-12-18T08:31:31.472Z,18.73
2022-12-18T08:32:34.075Z,18.57
2022-12-18T08:33:37.342Z,18.77
2022-12-18T08:34:39.368Z,18.60
2022-12-18T08:35:45.578Z,17.57
2022-12-18T08:36:47.734Z,18.53
2022-12-18T08:37:49.452Z,18.37
2022-12-18T08:38:51.574Z,17.70
2022-12-18T08:39:53.263Z,18.47
2022-12-18T08:41:06.800Z,17.47
2022-12-18T08:42:27.303Z,18.10
2022-12-18T08:43:47.854Z,17.47
2022-12-18T08:44:49.587Z,18.30
2022-12-18T08:45:51.681Z,18.87
2022-12-18T08:46:53.388Z,19.60
2022-12-18T08:47:55.519Z,18.93
2022-12-18T08:48:57.254Z,19.13
2022-12-18T08:49:58.965Z,19.90
2022-12-18T08:51:01.010Z,18.77
2022-12-18T08:52:03.775Z,19.37
2022-12-18T08:53:05.624Z,19.73
2022-12-18T08:54:07.767Z,20.83
2022-12-18T08:55:10.563Z,19.67
2022-12-18T08:56:13.326Z,19.87
2022-12-18T08:57:15.113Z,20.13
2022-12-18T08:58:17.094Z,21.10
2022-12-18T08:59:20.070Z,19.60
2022-12-18T09:00:22.702Z,20.70
2022-12-18T09:01:25.323Z,21.13
2022-12-18T09:02:27.226Z,21.47
2022-12-18T09:03:29.377Z,22.57
2022-12-18T09:04:31.076Z,22.07
2022-12-18T09:05:32.781Z,22.40
2022-12-18T09:06:34.491Z,20.73
2022-12-18T09:07:36.228Z,22.17
2022-12-18T09:08:38.318Z,22.00
2022-12-18T09:09:40.199Z,22.47
2022-12-18T09:10:46.023Z,23.10
2022-12-18T09:11:47.840Z,24.10
2022-12-18T09:12:49.503Z,22.27
2022-12-18T09:13:51.778Z,23.93
2022-12-18T09:14:53.559Z,23.73
2022-12-18T09:15:56.544Z,23.30
2022-12-18T09:16:58.268Z,23.53
2022-12-18T09:18:00.095Z,23.67
2022-12-18T09:19:03.573Z,23.03
2022-12-18T09:20:06.101Z,23.53
2022-12-18T09:21:17.012Z,23.13
2022-12-18T09:22:18.752Z,23.03
2022-12-18T09:23:23.270Z,24.17
2022-12-18T09:24:24.958Z,25.27
2022-12-18T09:25:28.641Z,25.20
2022-12-18T09:26:30.401Z,26.43
2022-12-18T09:27:32.109Z,24.87
2022-12-18T09:28:34.390Z,26.63
2022-12-18T09:29:36.083Z,24.17
2022-12-18T09:30:42.431Z,24.40
2022-12-18T09:31:44.356Z,25.20
2022-12-18T09:32:46.025Z,24.97
2022-12-18T09:33:48.010Z,24.90
2022-12-18T09:34:50.419Z,25.77
2022-12-18T09:35:52.127Z,24.93
2022-12-18T09:36:53.763Z,25.70
2022-12-18T09:37:55.673Z,25.70
2022-12-18T09:38:58.119Z,25.13
2022-12-18T09:39:59.784Z,24.93
2022-12-18T09:41:26.138Z,25.97
2022-12-18T09:42:28.115Z,24.77
2022-12-18T09:43:38.091Z,25.30
2022-12-18T09:44:45.695Z,25.40
2022-12-18T09:45:52.284Z,24.40
2022-12-18T09:47:19.606Z,24.13
2022-12-18T09:48:27.324Z,24.83
2022-12-18T09:49:31.807Z,25.73
2022-12-18T09:50:40.762Z,28.07
2022-12-18T09:52:11.386Z,25.47
2022-12-18T09:53:23.642Z,23.83
2022-12-18T09:54:33.652Z,23.80
2022-12-18T09:55:44.217Z,25.37
2022-12-18T09:56:47.000Z,25.27
2022-12-18T09:58:13.083Z,25.83
2022-12-18T09:59:36.688Z,26.07
2022-12-18T10:00:38.451Z,24.33
2022-12-18T10:01:44.347Z,27.57
2022-12-18T10:02:47.477Z,25.87
2022-12-18T10:03:49.986Z,26.73
2022-12-18T10:05:08.416Z,25.63
2022-12-18T10:06:34.121Z,25.87
2022-12-18T10:07:59.028Z,26.80
2022-12-18T10:09:20.508Z,26.37
2022-12-18T10:10:41.166Z,25.67
2022-12-18T10:11:59.416Z,26.03
2022-12-18T10:13:09.079Z,24.60
2022-12-18T10:14:49.148Z,25.43
2022-12-18T10:16:12.251Z,25.83
2022-12-18T10:17:38.466Z,25.63
2022-12-18T10:18:57.832Z,26.47
2022-12-18T10:20:05.843Z,24.50
2022-12-18T10:21:20.109Z,25.93
2022-12-18T10:23:02.760Z,27.63
2022-12-18T10:24:12.618Z,25.90
2022-12-18T10:25:26.351Z,28.03
2022-12-18T10:26:28.047Z,27.57
2022-12-18T10:27:30.436Z,26.73
2022-12-18T10:28:38.479Z,28.63
2022-12-18T10:29:40.587Z,28.70
2022-12-18T10:30:43.784Z,28.07
2022-12-18T10:31:45.618Z,27.87
2022-12-18T10:32:47.300Z,27.50
2022-12-18T10:33:49.590Z,28.67
2022-12-18T10:34:58.307Z,27.93
2022-12-18T10:36:02.562Z,26.80
2022-12-18T10:37:13.869Z,26.97
2022-12-18T10:38:15.523Z,26.87
2022-12-18T10:39:27.381Z,28.57
2022-12-18T10:40:29.363Z,29.10
2022-12-18T10:41:31.938Z,28.50
2022-12-18T10:42:33.882Z,28.20
2022-12-18T10:43:37.702Z,27.47
2022-12-18T10:44:39.641Z,28.37
2022-12-18T10:45:42.836Z,27.70
2022-12-18T10:46:46.925Z,28.33
2022-12-18T10:47:50.786Z,28.23
2022-12-18T10:48:57.734Z,28.03
2022-12-18T10:50:00.943Z,28.67
2022-12-18T10:51:12.644Z,29.13
2022-12-18T10:52:26.769Z,27.83
2022-12-18T10:53:30.934Z,26.33
2022-12-18T10:54:34.915Z,28.63
2022-12-18T10:55:41.241Z,27.67
2022-12-18T10:56:43.703Z,26.97
2022-12-18T10:57:46.374Z,26.63
2022-12-18T10:58:58.579Z,26.30
2022-12-18T11:00:20.871Z,27.10
2022-12-18T11:01:22.951Z,26.17
2022-12-18T11:02:35.471Z,26.00
2022-12-18T11:03:42.768Z,25.57
2022-12-18T11:04:52.820Z,25.70
2022-12-18T11:06:04.656Z,27.73
2022-12-18T11:07:11.511Z,26.47
2022-12-18T11:08:26.212Z,26.67
2022-12-18T11:09:33.780Z,26.13
2022-12-18T11:10:38.717Z,26.10
2022-12-18T11:11:40.414Z,26.07
2022-12-18T11:12:42.198Z,28.33
2022-12-18T11:14:06.298Z,26.90
2022-12-18T11:15:36.840Z,25.90
2022-12-18T11:17:03.189Z,26.87
2022-12-18T11:18:25.655Z,24.37
2022-12-18T11:19:35.679Z,25.73
2022-12-18T11:20:37.564Z,25.53
2022-12-18T11:21:42.486Z,27.67
2022-12-18T11:22:44.796Z,26.57
2022-12-18T11:23:51.113Z,27.83
2022-12-18T11:26:36.720Z,25.87
2022-12-18T11:27:39.683Z,26.47
2022-12-18T11:29:08.285Z,26.93
2022-12-18T11:30:22.115Z,26.27
2022-12-18T11:31:32.293Z,26.53
2022-12-18T11:32:44.735Z,28.53
2022-12-18T11:34:28.960Z,27.53
2022-12-18T11:35:42.109Z,25.57
2022-12-18T11:36:46.945Z,27.90
2022-12-18T11:37:59.058Z,26.83
2022-12-18T11:39:07.132Z,26.20
2022-12-18T11:40:13.493Z,27.33
2022-12-18T11:41:54.559Z,27.67
2022-12-18T11:43:18.994Z,26.57
2022-12-18T11:44:30.645Z,26.97
2022-12-18T11:45:37.378Z,26.93
2022-12-18T11:46:52.001Z,28.27
2022-12-18T11:48:06.886Z,26.33
2022-12-18T11:49:18.224Z,26.30
2022-12-18T11:50:25.884Z,28.07
2022-12-18T11:51:38.347Z,27.70
2022-12-18T11:52:41.880Z,25.73
2022-12-18T11:53:43.666Z,26.90
2022-12-18T11:54:45.416Z,28.53
2022-12-18T11:56:14.523Z,27.03
2022-12-18T11:57:25.228Z,25.70
2022-12-18T11:58:47.780Z,27.47
2022-12-18T11:59:59.443Z,26.00
2022-12-18T12:01:21.024Z,25.73
2022-12-18T12:02:47.344Z,24.60
2022-12-18T12:04:22.691Z,24.50
2022-12-18T12:05:58.489Z,23.90
2022-12-18T12:07:22.867Z,23.67
2022-12-18T12:08:51.385Z,22.80
2022-12-18T12:10:14.940Z,23.83
2022-12-18T12:11:38.261Z,24.73
2022-12-18T12:13:17.978Z,24.27
2022-12-18T12:14:47.199Z,23.17
2022-12-18T12:16:07.351Z,22.37
2022-12-18T12:17:35.309Z,22.03
2022-12-18T12:19:02.673Z,22.80
2022-12-18T12:20:19.548Z,23.47
2022-12-18T12:21:42.696Z,24.20
2022-12-18T12:22:59.450Z,22.57
2022-12-18T12:24:29.367Z,22.43
2022-12-18T12:25:45.943Z,21.83
2022-12-18T12:27:14.943Z,21.83
2022-12-18T12:29:02.509Z,20.67
2022-12-18T12:30:08.440Z,22.00
2022-12-18T12:31:27.709Z,21.73
2022-12-18T12:32:55.867Z,20.53
2022-12-18T12:34:25.903Z,20.63
2022-12-18T12:35:46.282Z,21.50
2022-12-18T12:37:14.997Z,21.77
2022-12-18T12:38:31.387Z,20.67
2022-12-18T12:39:37.406Z,18.90
2022-12-18T12:40:55.313Z,20.60
2022-12-18T12:42:19.638Z,19.73
2022-12-18T12:43:44.643Z,20.57
2022-12-18T12:44:58.013Z,21.53
2022-12-18T12:46:15.540Z,22.10
2022-12-18T12:47:36.984Z,21.73
2022-12-18T12:49:02.469Z,20.53
2022-12-18T12:50:13.357Z,22.27
2022-12-18T12:51:30.922Z,22.00
2022-12-18T12:52:55.495Z,22.37
2022-12-18T12:53:59.430Z,19.53
2022-12-18T12:55:02.980Z,22.87
2022-12-18T12:56:06.586Z,22.30
2022-12-18T12:57:24.529Z,23.63
2022-12-18T12:59:02.438Z,23.23
2022-12-18T13:00:15.765Z,21.57
2022-12-18T13:01:39.233Z,20.87
2022-12-18T13:02:52.744Z,21.80
2022-12-18T13:04:22.771Z,25.27
2022-12-18T13:05:44.487Z,23.17
2022-12-18T13:07:00.180Z,22.13
2022-12-18T13:08:10.562Z,19.47
2022-12-18T13:09:12.559Z,22.97
2022-12-18T13:10:19.199Z,21.67
2022-12-18T13:11:59.777Z,21.20
2022-12-18T13:13:13.521Z,22.87
2022-12-18T13:14:33.827Z,22.73
2022-12-18T13:15:44.705Z,22.57
2022-12-18T13:16:48.140Z,21.20
2022-12-18T13:17:54.311Z,22.33
2022-12-18T13:18:58.848Z,21.37
2022-12-18T13:20:06.515Z,22.77
2022-12-18T13:21:34.045Z,20.60
2022-12-18T13:22:37.360Z,20.87
2022-12-18T13:23:39.785Z,20.87
2022-12-18T13:24:42.286Z,22.00
2022-12-18T13:25:44.015Z,22.63
2022-12-18T13:26:45.869Z,22.50
2022-12-18T13:28:07.261Z,22.10
2022-12-18T13:29:09.422Z,22.03
2022-12-18T13:30:41.322Z,22.07
2022-12-18T13:31:43.530Z,20.47
2022-12-18T13:32:45.291Z,21.80
2022-12-18T13:34:24.543Z,21.73
2022-12-18T13:35:22.833Z,21.00
2022-12-18T13:36:32.884Z,21.33
2022-12-18T13:37:43.232Z,22.00
2022-12-18T13:38:45.855Z,21.73
2022-12-18T13:39:47.927Z,20.90
2022-12-18T13:40:49.634Z,21.83
2022-12-18T13:42:33.356Z,21.37
2022-12-18T13:43:44.603Z,21.23
2022-12-18T13:44:48.181Z,21.50
2022-12-18T13:46:02.682Z,21.17
2022-12-18T13:47:05.965Z,21.60
2022-12-18T13:48:19.686Z,22.13
2022-12-18T13:49:33.417Z,21.23
2022-12-18T13:50:36.397Z,21.17
2022-12-18T13:51:42.751Z,21.40
2022-12-18T13:52:44.642Z,22.73
2022-12-18T13:54:06.622Z,23.20
2022-12-18T13:55:18.708Z,22.53
2022-12-18T13:56:29.455Z,22.83
2022-12-18T13:57:39.279Z,21.00
2022-12-18T13:58:41.684Z,20.97
2022-12-18T13:59:43.617Z,23.70
2022-12-18T14:00:45.945Z,21.37
2022-12-18T14:02:02.956Z,22.83
2022-12-18T14:03:22.568Z,21.50
2022-12-18T14:04:27.916Z,20.83
2022-12-18T14:05:36.414Z,21.50
2022-12-18T14:06:40.651Z,20.57
2022-12-18T14:07:44.982Z,21.30
2022-12-18T14:08:51.119Z,22.07
2022-12-18T14:10:12.125Z,22.27
2022-12-18T14:11:24.637Z,21.03
2022-12-18T14:12:50.560Z,22.87
2022-12-18T14:13:53.096Z,20.30
2022-12-18T14:14:55.489Z,20.73
2022-12-18T14:15:59.272Z,20.53
2022-12-18T14:17:02.943Z,20.17
2022-12-18T14:18:24.127Z,21.53
2022-12-18T14:19:26.460Z,21.17
2022-12-18T14:20:33.596Z,22.17
2022-12-18T14:21:36.093Z,21.63
2022-12-18T14:22:37.835Z,21.50
2022-12-18T14:23:42.691Z,21.20
2022-12-18T14:24:45.370Z,21.33
2022-12-18T14:25:48.131Z,23.27
2022-12-18T14:26:51.336Z,21.40
2022-12-18T14:28:09.666Z,23.13
2022-12-18T14:29:28.873Z,21.87
2022-12-18T14:30:42.723Z,23.77